Terminal Aerodrome Forecast
Issued by NWS

Home | Current Version | Previous Version | Text Only | Print | Product List | Glossary On
Versions: 1 2 3 4 5 6 7 8 9 10 11 12
000
FTUS42 KMLB 261700
TAFSUA
TAF
KSUA 261727Z 2618/2718 29008KT P6SM VCTS SCT035CB BKN050
     FM261900 12011KT P6SM VCTS SCT040CB BKN060 BKN250
      TEMPO 2620/2622 3SM TSRA BKN035CB OVC080
     FM270000 22003KT P6SM SCT080 BKN250
     FM271400 24007KT P6SM FEW030 SCT250=

USA.gov is the U.S. government's official web portal to all federal, state and local government web resources and services.